sensor_id;sensor_type;location;lat;lon;timestamp;P1;durP1;ratioP1;P2;durP2;ratioP2
253;SDS011;590;48.772;8.846;2023-04-05T00:01:12;3.33;;;2.53;;
253;SDS011;590;48.772;8.846;2023-04-05T00:03:41;2.93;;;2.73;;
253;SDS011;590;48.772;8.846;2023-04-05T00:06:09;2.60;;;2.40;;
253;SDS011;590;48.772;8.846;2023-04-05T00:08:38;3.30;;;3.10;;
253;SDS011;590;48.772;8.846;2023-04-05T00:11:07;2.60;;;2.43;;
253;SDS011;590;48.772;8.846;2023-04-05T00:13:36;2.63;;;2.43;;
253;SDS011;590;48.772;8.846;2023-04-05T00:16:06;3.70;;;2.47;;
253;SDS011;590;48.772;8.846;2023-04-05T00:18:34;2.73;;;2.53;;
253;SDS011;590;48.772;8.846;2023-04-05T00:21:04;2.80;;;2.60;;
253;SDS011;590;48.772;8.846;2023-04-05T00:23:32;3.10;;;2.90;;
253;SDS011;590;48.772;8.846;2023-04-05T00:26:03;2.93;;;2.73;;
253;SDS011;590;48.772;8.846;2023-04-05T00:28:32;2.67;;;2.47;;
253;SDS011;590;48.772;8.846;2023-04-05T00:31:01;3.40;;;3.20;;
253;SDS011;590;48.772;8.846;2023-04-05T00:33:31;3.00;;;2.80;;
253;SDS011;590;48.772;8.846;2023-04-05T00:36:09;3.10;;;2.90;;
253;SDS011;590;48.772;8.846;2023-04-05T00:38:38;2.70;;;2.50;;
253;SDS011;590;48.772;8.846;2023-04-05T00:41:07;3.33;;;3.13;;
253;SDS011;590;48.772;8.846;2023-04-05T00:43:35;2.50;;;2.30;;
253;SDS011;590;48.772;8.846;2023-04-05T00:46:04;2.63;;;2.43;;
253;SDS011;590;48.772;8.846;2023-04-05T00:48:34;2.80;;;2.63;;
253;SDS011;590;48.772;8.846;2023-04-05T00:51:03;3.00;;;2.80;;
253;SDS011;590;48.772;8.846;2023-04-05T00:53:34;2.90;;;2.70;;
253;SDS011;590;48.772;8.846;2023-04-05T00:56:03;3.73;;;2.80;;
253;SDS011;590;48.772;8.846;2023-04-05T00:58:31;2.60;;;2.40;;
253;SDS011;590;48.772;8.846;2023-04-05T01:01:01;2.70;;;2.50;;
253;SDS011;590;48.772;8.846;2023-04-05T01:03:42;2.73;;;2.53;;
253;SDS011;590;48.772;8.846;2023-04-05T01:06:15;2.90;;;2.70;;
253;SDS011;590;48.772;8.846;2023-04-05T01:08:51;2.83;;;2.63;;
253;SDS011;590;48.772;8.846;2023-04-05T01:11:27;2.83;;;2.63;;
253;SDS011;590;48.772;8.846;2023-04-05T01:13:57;2.87;;;2.67;;
253;SDS011;590;48.772;8.846;2023-04-05T01:16:26;3.13;;;2.93;;
253;SDS011;590;48.772;8.846;2023-04-05T01:18:55;2.53;;;2.33;;
253;SDS011;590;48.772;8.846;2023-04-05T01:24:43;2.80;;;2.60;;
253;SDS011;590;48.772;8.846;2023-04-05T01:27:26;2.73;;;2.53;;
253;SDS011;590;48.772;8.846;2023-04-05T01:30:11;3.27;;;3.07;;
253;SDS011;590;48.772;8.846;2023-04-05T01:32:50;2.70;;;2.50;;
253;SDS011;590;48.772;8.846;2023-04-05T01:35:28;2.77;;;2.57;;
253;SDS011;590;48.772;8.846;2023-04-05T01:38:04;3.10;;;2.90;;
253;SDS011;590;48.772;8.846;2023-04-05T01:40:36;3.40;;;2.73;;
253;SDS011;590;48.772;8.846;2023-04-05T01:43:11;3.00;;;2.80;;
253;SDS011;590;48.772;8.846;2023-04-05T01:45:41;2.57;;;2.37;;
253;SDS011;590;48.772;8.846;2023-04-05T01:48:10;3.17;;;2.97;;
253;SDS011;590;48.772;8.846;2023-04-05T01:50:38;2.90;;;2.70;;
253;SDS011;590;48.772;8.846;2023-04-05T01:53:07;3.10;;;2.90;;
253;SDS011;590;48.772;8.846;2023-04-05T01:55:35;2.60;;;2.40;;
253;SDS011;590;48.772;8.846;2023-04-05T01:58:03;2.63;;;2.43;;
253;SDS011;590;48.772;8.846;2023-04-05T02:00:31;3.23;;;3.03;;
253;SDS011;590;48.772;8.846;2023-04-05T02:03:01;3.20;;;3.00;;
253;SDS011;590;48.772;8.846;2023-04-05T02:05:29;3.10;;;2.90;;
253;SDS011;590;48.772;8.846;2023-04-05T02:07:57;2.80;;;2.60;;
253;SDS011;590;48.772;8.846;2023-04-05T02:10:25;3.03;;;2.83;;
253;SDS011;590;48.772;8.846;2023-04-05T02:12:55;2.70;;;2.50;;
253;SDS011;590;48.772;8.846;2023-04-05T02:15:23;2.70;;;2.50;;
253;SDS011;590;48.772;8.846;2023-04-05T02:17:51;3.20;;;3.00;;
253;SDS011;590;48.772;8.846;2023-04-05T02:20:21;2.73;;;2.53;;
253;SDS011;590;48.772;8.846;2023-04-05T02:22:51;2.97;;;2.77;;
253;SDS011;590;48.772;8.846;2023-04-05T02:25:19;3.00;;;2.80;;
253;SDS011;590;48.772;8.846;2023-04-05T02:27:47;3.07;;;2.87;;
253;SDS011;590;48.772;8.846;2023-04-05T02:30:15;2.90;;;2.70;;
253;SDS011;590;48.772;8.846;2023-04-05T02:32:43;2.50;;;2.30;;
253;SDS011;590;48.772;8.846;2023-04-05T02:35:12;2.43;;;2.23;;
253;SDS011;590;48.772;8.846;2023-04-05T02:37:43;3.00;;;2.80;;
253;SDS011;590;48.772;8.846;2023-04-05T02:40:12;2.70;;;2.50;;
253;SDS011;590;48.772;8.846;2023-04-05T02:42:41;2.90;;;2.70;;
253;SDS011;590;48.772;8.846;2023-04-05T02:45:09;3.13;;;2.93;;
253;SDS011;590;48.772;8.846;2023-04-05T02:47:37;3.47;;;3.27;;
253;SDS011;590;48.772;8.846;2023-04-05T02:50:05;3.17;;;2.97;;
253;SDS011;590;48.772;8.846;2023-04-05T02:52:34;3.00;;;2.80;;
253;SDS011;590;48.772;8.846;2023-04-05T02:55:04;2.80;;;2.60;;
253;SDS011;590;48.772;8.846;2023-04-05T02:57:33;2.87;;;2.67;;
253;SDS011;590;48.772;8.846;2023-04-05T03:00:06;3.03;;;2.83;;
253;SDS011;590;48.772;8.846;2023-04-05T03:02:36;2.63;;;2.43;;
253;SDS011;590;48.772;8.846;2023-04-05T03:05:05;3.00;;;2.80;;
253;SDS011;590;48.772;8.846;2023-04-05T03:07:35;2.87;;;2.67;;
253;SDS011;590;48.772;8.846;2023-04-05T03:10:05;2.90;;;2.70;;
253;SDS011;590;48.772;8.846;2023-04-05T03:12:34;3.13;;;2.93;;
253;SDS011;590;48.772;8.846;2023-04-05T03:15:02;3.10;;;2.90;;
253;SDS011;590;48.772;8.846;2023-04-05T03:17:32;2.70;;;2.50;;
253;SDS011;590;48.772;8.846;2023-04-05T03:20:00;2.30;;;2.10;;
253;SDS011;590;48.772;8.846;2023-04-05T03:22:28;2.73;;;2.53;;
253;SDS011;590;48.772;8.846;2023-04-05T03:24:57;2.73;;;2.53;;
253;SDS011;590;48.772;8.846;2023-04-05T03:27:26;2.13;;;1.97;;
253;SDS011;590;48.772;8.846;2023-04-05T03:29:54;3.07;;;2.87;;
253;SDS011;590;48.772;8.846;2023-04-05T03:32:22;3.03;;;2.83;;
253;SDS011;590;48.772;8.846;2023-04-05T03:34:50;3.07;;;2.87;;
253;SDS011;590;48.772;8.846;2023-04-05T03:37:18;3.00;;;2.80;;
253;SDS011;590;48.772;8.846;2023-04-05T03:39:46;2.87;;;2.67;;
253;SDS011;590;48.772;8.846;2023-04-05T03:42:14;2.80;;;2.60;;
253;SDS011;590;48.772;8.846;2023-04-05T03:44:44;2.43;;;2.23;;
253;SDS011;590;48.772;8.846;2023-04-05T03:47:13;2.70;;;2.50;;
253;SDS011;590;48.772;8.846;2023-04-05T03:49:41;2.80;;;2.60;;
253;SDS011;590;48.772;8.846;2023-04-05T03:52:08;2.70;;;2.50;;
253;SDS011;590;48.772;8.846;2023-04-05T03:54:36;2.93;;;2.73;;
253;SDS011;590;48.772;8.846;2023-04-05T03:57:06;3.30;;;3.10;;
253;SDS011;590;48.772;8.846;2023-04-05T03:59:34;3.00;;;2.80;;
253;SDS011;590;48.772;8.846;2023-04-05T04:02:03;3.20;;;3.00;;
253;SDS011;590;48.772;8.846;2023-04-05T04:04:31;2.57;;;2.37;;
253;SDS011;590;48.772;8.846;2023-04-05T04:06:59;3.10;;;2.90;;
253;SDS011;590;48.772;8.846;2023-04-05T04:09:27;3.30;;;3.10;;
253;SDS011;590;48.772;8.846;2023-04-05T04:11:56;2.67;;;2.47;;
253;SDS011;590;48.772;8.846;2023-04-05T04:14:24;2.83;;;2.63;;
253;SDS011;590;48.772;8.846;2023-04-05T04:16:52;3.27;;;3.07;;
253;SDS011;590;48.772;8.846;2023-04-05T04:19:21;2.80;;;2.60;;
253;SDS011;590;48.772;8.846;2023-04-05T04:21:49;2.80;;;2.60;;
253;SDS011;590;48.772;8.846;2023-04-05T04:24:17;2.55;;;2.35;;
253;SDS011;590;48.772;8.846;2023-04-05T04:26:46;3.17;;;2.97;;
253;SDS011;590;48.772;8.846;2023-04-05T04:29:15;3.20;;;3.00;;
253;SDS011;590;48.772;8.846;2023-04-05T04:31:43;3.07;;;2.87;;
253;SDS011;590;48.772;8.846;2023-04-05T04:34:13;2.60;;;2.40;;
253;SDS011;590;48.772;8.846;2023-04-05T04:36:45;2.47;;;2.27;;
253;SDS011;590;48.772;8.846;2023-04-05T04:39:13;2.80;;;2.60;;
253;SDS011;590;48.772;8.846;2023-04-05T04:41:43;2.90;;;2.70;;
253;SDS011;590;48.772;8.846;2023-04-05T04:44:12;2.57;;;2.37;;
253;SDS011;590;48.772;8.846;2023-04-05T04:46:40;3.00;;;2.80;;
253;SDS011;590;48.772;8.846;2023-04-05T04:49:09;3.10;;;2.90;;
253;SDS011;590;48.772;8.846;2023-04-05T04:51:38;3.13;;;2.93;;
253;SDS011;590;48.772;8.846;2023-04-05T04:54:09;3.13;;;2.93;;
253;SDS011;590;48.772;8.846;2023-04-05T04:56:38;3.20;;;3.00;;
253;SDS011;590;48.772;8.846;2023-04-05T04:59:06;2.60;;;2.40;;
253;SDS011;590;48.772;8.846;2023-04-05T05:01:34;2.60;;;2.40;;
253;SDS011;590;48.772;8.846;2023-04-05T05:04:05;2.50;;;2.30;;
253;SDS011;590;48.772;8.846;2023-04-05T05:06:34;2.50;;;2.30;;
253;SDS011;590;48.772;8.846;2023-04-05T05:09:02;2.60;;;2.40;;
253;SDS011;590;48.772;8.846;2023-04-05T05:11:32;2.77;;;2.57;;
253;SDS011;590;48.772;8.846;2023-04-05T05:14:00;3.03;;;2.83;;
253;SDS011;590;48.772;8.846;2023-04-05T05:16:28;3.13;;;2.93;;
253;SDS011;590;48.772;8.846;2023-04-05T05:18:56;2.57;;;2.37;;
253;SDS011;590;48.772;8.846;2023-04-05T05:21:24;2.80;;;2.60;;
253;SDS011;590;48.772;8.846;2023-04-05T05:23:53;2.80;;;2.60;;
253;SDS011;590;48.772;8.846;2023-04-05T05:26:21;3.00;;;2.80;;
253;SDS011;590;48.772;8.846;2023-04-05T05:28:50;2.70;;;2.53;;
253;SDS011;590;48.772;8.846;2023-04-05T05:31:18;2.83;;;2.50;;
253;SDS011;590;48.772;8.846;2023-04-05T05:33:46;3.90;;;3.10;;
253;SDS011;590;48.772;8.846;2023-04-05T05:36:15;3.27;;;3.07;;
253;SDS011;590;48.772;8.846;2023-04-05T05:38:45;2.80;;;2.60;;
253;SDS011;590;48.772;8.846;2023-04-05T05:41:14;3.20;;;3.00;;
253;SDS011;590;48.772;8.846;2023-04-05T05:43:42;3.30;;;3.10;;
253;SDS011;590;48.772;8.846;2023-04-05T05:46:11;3.00;;;2.80;;
253;SDS011;590;48.772;8.846;2023-04-05T05:48:40;2.60;;;2.40;;
253;SDS011;590;48.772;8.846;2023-04-05T05:51:08;3.03;;;2.83;;
253;SDS011;590;48.772;8.846;2023-04-05T05:53:36;3.33;;;3.13;;
253;SDS011;590;48.772;8.846;2023-04-05T05:56:04;3.20;;;3.00;;
253;SDS011;590;48.772;8.846;2023-04-05T05:58:33;2.90;;;2.70;;
253;SDS011;590;48.772;8.846;2023-04-05T06:01:01;3.10;;;2.90;;
253;SDS011;590;48.772;8.846;2023-04-05T06:03:30;3.00;;;2.80;;
253;SDS011;590;48.772;8.846;2023-04-05T06:05:59;3.17;;;2.97;;
253;SDS011;590;48.772;8.846;2023-04-05T06:08:28;4.70;;;3.23;;
253;SDS011;590;48.772;8.846;2023-04-05T06:10:56;2.50;;;2.30;;
253;SDS011;590;48.772;8.846;2023-04-05T06:13:24;3.20;;;3.00;;
253;SDS011;590;48.772;8.846;2023-04-05T06:15:52;2.80;;;2.60;;
253;SDS011;590;48.772;8.846;2023-04-05T06:18:20;3.50;;;3.30;;
253;SDS011;590;48.772;8.846;2023-04-05T06:20:49;3.00;;;2.80;;
253;SDS011;590;48.772;8.846;2023-04-05T06:23:17;3.87;;;3.67;;
253;SDS011;590;48.772;8.846;2023-04-05T06:25:45;3.57;;;3.37;;
253;SDS011;590;48.772;8.846;2023-04-05T06:28:13;3.70;;;3.50;;
253;SDS011;590;48.772;8.846;2023-04-05T06:30:41;3.20;;;3.00;;
253;SDS011;590;48.772;8.846;2023-04-05T06:33:10;3.60;;;3.40;;
253;SDS011;590;48.772;8.846;2023-04-05T06:35:38;3.07;;;2.87;;
253;SDS011;590;48.772;8.846;2023-04-05T06:38:07;4.30;;;4.00;;
253;SDS011;590;48.772;8.846;2023-04-05T06:40:35;3.60;;;3.40;;
253;SDS011;590;48.772;8.846;2023-04-05T06:43:03;4.10;;;3.90;;
253;SDS011;590;48.772;8.846;2023-04-05T06:45:31;3.67;;;3.47;;
253;SDS011;590;48.772;8.846;2023-04-05T06:47:59;3.90;;;3.70;;
253;SDS011;590;48.772;8.846;2023-04-05T06:50:28;3.77;;;3.57;;
253;SDS011;590;48.772;8.846;2023-04-05T06:52:56;4.23;;;3.97;;
253;SDS011;590;48.772;8.846;2023-04-05T06:55:25;3.47;;;3.27;;
253;SDS011;590;48.772;8.846;2023-04-05T06:57:53;3.90;;;3.70;;
253;SDS011;590;48.772;8.846;2023-04-05T07:00:21;4.07;;;3.87;;
253;SDS011;590;48.772;8.846;2023-04-05T07:02:49;3.90;;;3.70;;
253;SDS011;590;48.772;8.846;2023-04-05T07:05:18;4.30;;;4.00;;
253;SDS011;590;48.772;8.846;2023-04-05T07:07:46;3.73;;;3.53;;
253;SDS011;590;48.772;8.846;2023-04-05T07:10:14;3.90;;;3.70;;
253;SDS011;590;48.772;8.846;2023-04-05T07:12:44;3.87;;;3.67;;
253;SDS011;590;48.772;8.846;2023-04-05T07:15:12;3.57;;;3.37;;
253;SDS011;590;48.772;8.846;2023-04-05T07:17:40;4.30;;;4.00;;
253;SDS011;590;48.772;8.846;2023-04-05T07:20:08;4.37;;;4.07;;
253;SDS011;590;48.772;8.846;2023-04-05T07:22:37;5.20;;;4.90;;
253;SDS011;590;48.772;8.846;2023-04-05T07:25:06;4.00;;;3.80;;
253;SDS011;590;48.772;8.846;2023-04-05T07:27:34;4.70;;;4.40;;
253;SDS011;590;48.772;8.846;2023-04-05T07:30:07;3.97;;;3.77;;
253;SDS011;590;48.772;8.846;2023-04-05T07:32:35;4.07;;;3.87;;
253;SDS011;590;48.772;8.846;2023-04-05T07:35:04;4.80;;;4.50;;
253;SDS011;590;48.772;8.846;2023-04-05T07:37:32;4.53;;;4.23;;
253;SDS011;590;48.772;8.846;2023-04-05T07:40:01;4.03;;;3.83;;
253;SDS011;590;48.772;8.846;2023-04-05T07:42:31;4.40;;;4.10;;
253;SDS011;590;48.772;8.846;2023-04-05T07:44:59;5.90;;;4.00;;
253;SDS011;590;48.772;8.846;2023-04-05T07:47:28;3.00;;;2.80;;
253;SDS011;590;48.772;8.846;2023-04-05T07:49:56;4.60;;;4.30;;
253;SDS011;590;48.772;8.846;2023-04-05T07:52:24;4.10;;;3.90;;
253;SDS011;590;48.772;8.846;2023-04-05T07:54:52;4.00;;;3.80;;
253;SDS011;590;48.772;8.846;2023-04-05T07:57:21;4.30;;;4.00;;
253;SDS011;590;48.772;8.846;2023-04-05T07:59:49;5.23;;;4.93;;
253;SDS011;590;48.772;8.846;2023-04-05T08:02:17;4.30;;;4.00;;
253;SDS011;590;48.772;8.846;2023-04-05T08:04:47;4.60;;;4.30;;
253;SDS011;590;48.772;8.846;2023-04-05T08:07:15;4.07;;;3.87;;
253;SDS011;590;48.772;8.846;2023-04-05T08:09:43;4.50;;;4.20;;
253;SDS011;590;48.772;8.846;2023-04-05T08:12:11;4.57;;;4.27;;
253;SDS011;590;48.772;8.846;2023-04-05T08:14:43;4.70;;;4.40;;
253;SDS011;590;48.772;8.846;2023-04-05T08:17:11;4.37;;;4.07;;
253;SDS011;590;48.772;8.846;2023-04-05T08:19:40;4.17;;;3.93;;
253;SDS011;590;48.772;8.846;2023-04-05T08:22:09;4.17;;;3.93;;
253;SDS011;590;48.772;8.846;2023-04-05T08:24:38;4.27;;;4.00;;
253;SDS011;590;48.772;8.846;2023-04-05T08:27:06;4.53;;;4.23;;
253;SDS011;590;48.772;8.846;2023-04-05T08:29:34;4.03;;;3.83;;
253;SDS011;590;48.772;8.846;2023-04-05T08:32:02;5.70;;;5.40;;
253;SDS011;590;48.772;8.846;2023-04-05T08:34:30;3.70;;;3.50;;
253;SDS011;590;48.772;8.846;2023-04-05T08:36:58;3.40;;;3.20;;
253;SDS011;590;48.772;8.846;2023-04-05T08:39:28;4.23;;;3.97;;
253;SDS011;590;48.772;8.846;2023-04-05T08:41:59;4.17;;;3.93;;
253;SDS011;590;48.772;8.846;2023-04-05T08:44:30;3.50;;;3.30;;
253;SDS011;590;48.772;8.846;2023-04-05T08:47:02;4.07;;;3.87;;
253;SDS011;590;48.772;8.846;2023-04-05T08:49:31;4.07;;;3.87;;
253;SDS011;590;48.772;8.846;2023-04-05T08:51:59;3.90;;;3.70;;
253;SDS011;590;48.772;8.846;2023-04-05T08:54:29;3.73;;;3.53;;
253;SDS011;590;48.772;8.846;2023-04-05T08:56:57;4.00;;;3.80;;
253;SDS011;590;48.772;8.846;2023-04-05T08:59:26;3.70;;;3.50;;
253;SDS011;590;48.772;8.846;2023-04-05T09:01:55;3.57;;;3.37;;
253;SDS011;590;48.772;8.846;2023-04-05T09:04:28;3.60;;;3.40;;
253;SDS011;590;48.772;8.846;2023-04-05T09:06:58;4.43;;;4.13;;
253;SDS011;590;48.772;8.846;2023-04-05T09:09:31;3.73;;;3.53;;
253;SDS011;590;48.772;8.846;2023-04-05T09:12:02;3.77;;;3.57;;
253;SDS011;590;48.772;8.846;2023-04-05T09:14:30;3.87;;;3.67;;
253;SDS011;590;48.772;8.846;2023-04-05T09:17:00;3.90;;;3.70;;
253;SDS011;590;48.772;8.846;2023-04-05T09:19:29;3.60;;;3.40;;
253;SDS011;590;48.772;8.846;2023-04-05T09:21:57;3.23;;;3.03;;
253;SDS011;590;48.772;8.846;2023-04-05T09:24:31;3.30;;;3.10;;
253;SDS011;590;48.772;8.846;2023-04-05T09:27:03;3.90;;;3.70;;
253;SDS011;590;48.772;8.846;2023-04-05T09:29:32;3.77;;;3.57;;
253;SDS011;590;48.772;8.846;2023-04-05T09:32:00;3.13;;;2.93;;
253;SDS011;590;48.772;8.846;2023-04-05T09:34:29;3.30;;;3.10;;
253;SDS011;590;48.772;8.846;2023-04-05T09:36:59;3.70;;;3.50;;
253;SDS011;590;48.772;8.846;2023-04-05T09:39:27;3.33;;;3.13;;
253;SDS011;590;48.772;8.846;2023-04-05T09:42:04;3.47;;;3.27;;
253;SDS011;590;48.772;8.846;2023-04-05T09:44:48;3.43;;;3.23;;
253;SDS011;590;48.772;8.846;2023-04-05T09:47:20;3.30;;;3.10;;
253;SDS011;590;48.772;8.846;2023-04-05T09:49:50;3.40;;;3.20;;
253;SDS011;590;48.772;8.846;2023-04-05T09:52:22;2.80;;;2.60;;
253;SDS011;590;48.772;8.846;2023-04-05T09:54:51;3.00;;;2.80;;
253;SDS011;590;48.772;8.846;2023-04-05T09:57:23;3.33;;;3.13;;
253;SDS011;590;48.772;8.846;2023-04-05T09:59:52;3.17;;;2.97;;
253;SDS011;590;48.772;8.846;2023-04-05T10:02:21;3.20;;;3.00;;
253;SDS011;590;48.772;8.846;2023-04-05T10:04:50;2.73;;;2.53;;
253;SDS011;590;48.772;8.846;2023-04-05T10:07:18;3.27;;;3.07;;
253;SDS011;590;48.772;8.846;2023-04-05T10:09:46;2.60;;;2.40;;
253;SDS011;590;48.772;8.846;2023-04-05T10:12:17;2.90;;;2.70;;
253;SDS011;590;48.772;8.846;2023-04-05T10:15:09;2.60;;;2.40;;
253;SDS011;590;48.772;8.846;2023-04-05T10:17:43;2.87;;;2.67;;
253;SDS011;590;48.772;8.846;2023-04-05T10:20:15;2.97;;;2.77;;
253;SDS011;590;48.772;8.846;2023-04-05T10:22:48;3.20;;;3.00;;
253;SDS011;590;48.772;8.846;2023-04-05T10:25:26;2.90;;;2.70;;
253;SDS011;590;48.772;8.846;2023-04-05T10:28:11;2.57;;;2.37;;
253;SDS011;590;48.772;8.846;2023-04-05T10:30:46;3.37;;;3.17;;
253;SDS011;590;48.772;8.846;2023-04-05T10:33:18;2.77;;;2.57;;
253;SDS011;590;48.772;8.846;2023-04-05T10:35:50;2.90;;;2.70;;
253;SDS011;590;48.772;8.846;2023-04-05T10:38:26;2.80;;;2.60;;
253;SDS011;590;48.772;8.846;2023-04-05T10:40:56;2.77;;;2.57;;
253;SDS011;590;48.772;8.846;2023-04-05T10:43:32;3.00;;;2.80;;
253;SDS011;590;48.772;8.846;2023-04-05T10:46:02;3.07;;;2.63;;
253;SDS011;590;48.772;8.846;2023-04-05T10:48:34;2.93;;;2.73;;
253;SDS011;590;48.772;8.846;2023-04-05T10:51:06;2.73;;;2.53;;
253;SDS011;590;48.772;8.846;2023-04-05T10:53:36;2.83;;;2.63;;
253;SDS011;590;48.772;8.846;2023-04-05T10:56:04;2.50;;;2.30;;
253;SDS011;590;48.772;8.846;2023-04-05T10:58:34;2.70;;;2.50;;
253;SDS011;590;48.772;8.846;2023-04-05T11:01:06;2.50;;;2.30;;
253;SDS011;590;48.772;8.846;2023-04-05T11:03:44;2.80;;;2.60;;
253;SDS011;590;48.772;8.846;2023-04-05T11:06:16;2.60;;;2.40;;
253;SDS011;590;48.772;8.846;2023-04-05T11:08:46;3.00;;;2.80;;
253;SDS011;590;48.772;8.846;2023-04-05T11:11:16;2.80;;;2.60;;
253;SDS011;590;48.772;8.846;2023-04-05T11:13:48;2.30;;;2.10;;
253;SDS011;590;48.772;8.846;2023-04-05T11:16:18;2.37;;;2.17;;
253;SDS011;590;48.772;8.846;2023-04-05T11:18:47;2.50;;;2.30;;
253;SDS011;590;48.772;8.846;2023-04-05T11:21:20;2.60;;;2.40;;
253;SDS011;590;48.772;8.846;2023-04-05T11:23:58;2.33;;;2.13;;
253;SDS011;590;48.772;8.846;2023-04-05T11:26:32;3.37;;;2.70;;
253;SDS011;590;48.772;8.846;2023-04-05T11:32:18;2.00;;;1.90;;
253;SDS011;590;48.772;8.846;2023-04-05T11:34:56;2.70;;;2.20;;
253;SDS011;590;48.772;8.846;2023-04-05T11:40:34;2.40;;;2.20;;
253;SDS011;590;48.772;8.846;2023-04-05T11:43:03;2.50;;;2.30;;
253;SDS011;590;48.772;8.846;2023-04-05T11:45:34;2.60;;;2.40;;
253;SDS011;590;48.772;8.846;2023-04-05T11:48:07;2.77;;;2.57;;
253;SDS011;590;48.772;8.846;2023-04-05T11:50:37;2.40;;;2.20;;
253;SDS011;590;48.772;8.846;2023-04-05T11:53:07;2.33;;;2.13;;
253;SDS011;590;48.772;8.846;2023-04-05T11:55:37;2.60;;;2.40;;
253;SDS011;590;48.772;8.846;2023-04-05T11:58:12;2.20;;;2.00;;
253;SDS011;590;48.772;8.846;2023-04-05T12:00:41;2.30;;;2.10;;
253;SDS011;590;48.772;8.846;2023-04-05T12:03:13;2.73;;;2.53;;
253;SDS011;590;48.772;8.846;2023-04-05T12:05:48;2.10;;;1.97;;
253;SDS011;590;48.772;8.846;2023-04-05T12:08:17;2.50;;;2.30;;
253;SDS011;590;48.772;8.846;2023-04-05T12:10:52;2.63;;;2.43;;
253;SDS011;590;48.772;8.846;2023-04-05T12:13:24;2.80;;;2.60;;
253;SDS011;590;48.772;8.846;2023-04-05T12:15:56;2.67;;;2.47;;
253;SDS011;590;48.772;8.846;2023-04-05T12:18:26;2.33;;;2.20;;
253;SDS011;590;48.772;8.846;2023-04-05T12:20:56;2.50;;;2.30;;
253;SDS011;590;48.772;8.846;2023-04-05T12:23:25;2.30;;;2.10;;
253;SDS011;590;48.772;8.846;2023-04-05T12:25:53;2.70;;;2.50;;
253;SDS011;590;48.772;8.846;2023-04-05T12:28:22;2.43;;;2.23;;
253;SDS011;590;48.772;8.846;2023-04-05T12:30:50;2.73;;;2.53;;
253;SDS011;590;48.772;8.846;2023-04-05T12:33:26;2.53;;;2.33;;
253;SDS011;590;48.772;8.846;2023-04-05T12:35:54;2.40;;;2.20;;
253;SDS011;590;48.772;8.846;2023-04-05T12:38:26;2.73;;;2.53;;
253;SDS011;590;48.772;8.846;2023-04-05T12:40:58;2.00;;;1.90;;
253;SDS011;590;48.772;8.846;2023-04-05T12:43:36;3.30;;;2.63;;
253;SDS011;590;48.772;8.846;2023-04-05T12:46:05;2.40;;;2.20;;
253;SDS011;590;48.772;8.846;2023-04-05T12:48:37;2.47;;;2.27;;
253;SDS011;590;48.772;8.846;2023-04-05T12:51:05;2.70;;;2.50;;
253;SDS011;590;48.772;8.846;2023-04-05T12:53:45;2.60;;;2.40;;
253;SDS011;590;48.772;8.846;2023-04-05T12:56:14;2.00;;;1.90;;
253;SDS011;590;48.772;8.846;2023-04-05T12:58:42;2.57;;;2.37;;
253;SDS011;590;48.772;8.846;2023-04-05T13:01:14;2.37;;;2.17;;
253;SDS011;590;48.772;8.846;2023-04-05T13:03:44;2.70;;;2.50;;
253;SDS011;590;48.772;8.846;2023-04-05T13:06:15;2.23;;;2.03;;
253;SDS011;590;48.772;8.846;2023-04-05T13:08:43;2.13;;;1.97;;
253;SDS011;590;48.772;8.846;2023-04-05T13:11:11;2.67;;;2.47;;
253;SDS011;590;48.772;8.846;2023-04-05T13:13:38;2.37;;;2.17;;
253;SDS011;590;48.772;8.846;2023-04-05T13:16:07;2.73;;;2.53;;
253;SDS011;590;48.772;8.846;2023-04-05T13:18:35;2.47;;;2.27;;
253;SDS011;590;48.772;8.846;2023-04-05T13:21:05;2.33;;;2.13;;
253;SDS011;590;48.772;8.846;2023-04-05T13:23:35;2.80;;;2.60;;
253;SDS011;590;48.772;8.846;2023-04-05T13:26:04;2.23;;;2.03;;
253;SDS011;590;48.772;8.846;2023-04-05T13:28:33;3.03;;;2.87;;
253;SDS011;590;48.772;8.846;2023-04-05T13:31:01;3.37;;;2.73;;
253;SDS011;590;48.772;8.846;2023-04-05T13:33:31;2.50;;;2.30;;
253;SDS011;590;48.772;8.846;2023-04-05T13:35:59;2.77;;;2.57;;
253;SDS011;590;48.772;8.846;2023-04-05T13:38:29;2.80;;;2.60;;
253;SDS011;590;48.772;8.846;2023-04-05T13:40:57;2.50;;;2.30;;
253;SDS011;590;48.772;8.846;2023-04-05T13:43:25;2.40;;;2.20;;
253;SDS011;590;48.772;8.846;2023-04-05T13:45:53;2.40;;;2.20;;
253;SDS011;590;48.772;8.846;2023-04-05T13:48:21;2.80;;;2.60;;
253;SDS011;590;48.772;8.846;2023-04-05T13:50:49;2.00;;;1.90;;
253;SDS011;590;48.772;8.846;2023-04-05T13:53:17;2.73;;;2.53;;
253;SDS011;590;48.772;8.846;2023-04-05T13:55:46;2.80;;;2.50;;
253;SDS011;590;48.772;8.846;2023-04-05T13:58:14;3.07;;;2.87;;
253;SDS011;590;48.772;8.846;2023-04-05T14:00:42;2.20;;;2.00;;
253;SDS011;590;48.772;8.846;2023-04-05T14:03:10;2.07;;;1.93;;
253;SDS011;590;48.772;8.846;2023-04-05T14:05:38;2.07;;;1.93;;
253;SDS011;590;48.772;8.846;2023-04-05T14:08:06;2.77;;;2.57;;
253;SDS011;590;48.772;8.846;2023-04-05T14:10:34;2.33;;;2.13;;
253;SDS011;590;48.772;8.846;2023-04-05T14:13:04;2.40;;;2.17;;
253;SDS011;590;48.772;8.846;2023-04-05T14:15:32;2.43;;;2.23;;
253;SDS011;590;48.772;8.846;2023-04-05T14:18:01;2.60;;;2.40;;
253;SDS011;590;48.772;8.846;2023-04-05T14:20:31;2.83;;;2.63;;
253;SDS011;590;48.772;8.846;2023-04-05T14:22:59;2.43;;;2.23;;
253;SDS011;590;48.772;8.846;2023-04-05T14:25:27;2.13;;;1.97;;
253;SDS011;590;48.772;8.846;2023-04-05T14:27:55;2.30;;;2.10;;
253;SDS011;590;48.772;8.846;2023-04-05T14:30:25;2.63;;;2.43;;
253;SDS011;590;48.772;8.846;2023-04-05T14:32:53;2.60;;;2.40;;
253;SDS011;590;48.772;8.846;2023-04-05T14:35:21;2.50;;;2.30;;
253;SDS011;590;48.772;8.846;2023-04-05T14:37:49;2.00;;;1.90;;
253;SDS011;590;48.772;8.846;2023-04-05T14:40:17;1.83;;;1.73;;
253;SDS011;590;48.772;8.846;2023-04-05T14:42:45;3.50;;;3.10;;
253;SDS011;590;48.772;8.846;2023-04-05T14:45:15;2.77;;;2.57;;
253;SDS011;590;48.772;8.846;2023-04-05T14:47:45;1.93;;;1.83;;
253;SDS011;590;48.772;8.846;2023-04-05T14:50:13;2.23;;;2.03;;
253;SDS011;590;48.772;8.846;2023-04-05T14:52:41;2.60;;;2.40;;
253;SDS011;590;48.772;8.846;2023-04-05T14:55:10;2.50;;;2.30;;
253;SDS011;590;48.772;8.846;2023-04-05T14:57:39;2.50;;;2.30;;
253;SDS011;590;48.772;8.846;2023-04-05T15:00:08;1.90;;;1.70;;
253;SDS011;590;48.772;8.846;2023-04-05T15:02:37;2.60;;;2.40;;
253;SDS011;590;48.772;8.846;2023-04-05T15:05:08;2.53;;;2.33;;
253;SDS011;590;48.772;8.846;2023-04-05T15:08:01;2.60;;;2.23;;
253;SDS011;590;48.772;8.846;2023-04-05T15:10:35;2.50;;;2.30;;
253;SDS011;590;48.772;8.846;2023-04-05T15:13:05;2.07;;;1.93;;
253;SDS011;590;48.772;8.846;2023-04-05T15:15:33;2.60;;;2.40;;
253;SDS011;590;48.772;8.846;2023-04-05T15:18:02;2.80;;;2.60;;
253;SDS011;590;48.772;8.846;2023-04-05T15:20:32;2.60;;;2.40;;
253;SDS011;590;48.772;8.846;2023-04-05T15:23:01;2.30;;;2.10;;
253;SDS011;590;48.772;8.846;2023-04-05T15:25:29;2.47;;;2.27;;
253;SDS011;590;48.772;8.846;2023-04-05T15:27:57;2.90;;;2.67;;
253;SDS011;590;48.772;8.846;2023-04-05T15:30:31;2.30;;;2.10;;
253;SDS011;590;48.772;8.846;2023-04-05T15:32:59;2.13;;;1.97;;
253;SDS011;590;48.772;8.846;2023-04-05T15:35:27;2.33;;;2.13;;
253;SDS011;590;48.772;8.846;2023-04-05T15:37:57;2.63;;;2.43;;
253;SDS011;590;48.772;8.846;2023-04-05T15:40:26;2.40;;;2.20;;
253;SDS011;590;48.772;8.846;2023-04-05T15:43:00;3.00;;;2.80;;
253;SDS011;590;48.772;8.846;2023-04-05T15:45:47;2.70;;;2.50;;
253;SDS011;590;48.772;8.846;2023-04-05T15:48:46;2.77;;;2.57;;
253;SDS011;590;48.772;8.846;2023-04-05T15:51:37;3.10;;;2.90;;
253;SDS011;590;48.772;8.846;2023-04-05T15:54:32;2.20;;;2.00;;
253;SDS011;590;48.772;8.846;2023-04-05T15:57:45;2.33;;;2.13;;
253;SDS011;590;48.772;8.846;2023-04-05T16:03:50;2.80;;;2.60;;
253;SDS011;590;48.772;8.846;2023-04-05T16:06:29;2.43;;;2.23;;
253;SDS011;590;48.772;8.846;2023-04-05T16:09:08;3.00;;;2.80;;
253;SDS011;590;48.772;8.846;2023-04-05T16:11:56;2.97;;;2.77;;
253;SDS011;590;48.772;8.846;2023-04-05T16:14:46;2.50;;;2.30;;
253;SDS011;590;48.772;8.846;2023-04-05T16:17:14;2.37;;;2.17;;